createdAt,value
2019-05-19T00:00:23.464Z,100649.67
2019-05-19T00:00:59.344Z,100653.46
2019-05-19T00:01:35.239Z,100653.46
2019-05-19T00:02:11.122Z,100645.78
2019-05-19T00:02:47.165Z,100651.80
2019-05-19T00:03:23.038Z,100656.44
2019-05-19T00:03:58.872Z,100649.83
2019-05-19T00:04:34.781Z,100660.44
2019-05-19T00:05:10.727Z,100657.67
2019-05-19T00:05:46.578Z,100656.98
2019-05-19T00:06:22.485Z,100661.39
2019-05-19T00:06:59.910Z,100669.62
2019-05-19T00:07:36.251Z,100670.18
2019-05-19T00:08:12.459Z,100670.18
2019-05-19T00:08:49.323Z,100670.66
2019-05-19T00:09:25.191Z,100669.50
2019-05-19T00:10:01.329Z,100667.91
2019-05-19T00:10:37.294Z,100670.83
2019-05-19T00:11:13.152Z,100670.83
2019-05-19T00:11:49.062Z,100675.84
2019-05-19T00:12:24.961Z,100678.79
2019-05-19T00:13:00.833Z,100675.78
2019-05-19T00:13:36.760Z,100678.44
2019-05-19T00:14:12.642Z,100684.34
2019-05-19T00:14:48.533Z,100685.31
2019-05-19T00:15:24.444Z,100682.80
2019-05-19T00:16:00.331Z,100690.81
2019-05-19T00:16:36.195Z,100689.10
2019-05-19T00:17:12.376Z,100692.31
2019-05-19T00:17:48.305Z,100690.09
2019-05-19T00:18:24.533Z,100693.58
2019-05-19T00:19:01.377Z,100693.08
2019-05-19T00:19:38.338Z,100700.34
2019-05-19T00:20:14.845Z,100695.43
2019-05-19T00:20:51.340Z,100701.34
2019-05-19T00:21:27.251Z,100704.73
2019-05-19T00:22:03.331Z,100704.92
2019-05-19T00:22:39.191Z,100701.31
2019-05-19T00:23:15.057Z,100700.09
2019-05-19T00:23:50.950Z,100705.82
2019-05-19T00:24:26.867Z,100706.47
2019-05-19T00:25:02.743Z,100709.25
2019-05-19T00:25:38.666Z,100710.73
2019-05-19T00:26:14.692Z,100706.54
2019-05-19T00:26:51.802Z,100709.67
2019-05-19T00:27:27.766Z,100707.89
2019-05-19T00:28:03.860Z,100705.05
2019-05-19T00:28:40.547Z,100709.05
2019-05-19T00:29:16.515Z,100701.69
2019-05-19T00:29:52.358Z,100697.24
2019-05-19T00:30:28.290Z,100700.13
2019-05-19T00:31:04.225Z,100697.11
2019-05-19T00:31:40.167Z,100694.89
2019-05-19T00:32:16.035Z,100695.13
2019-05-19T00:32:51.984Z,100694.27
2019-05-19T00:33:27.953Z,100691.48
2019-05-19T00:34:03.820Z,100690.06
2019-05-19T00:34:39.726Z,100688.09
2019-05-19T00:35:15.793Z,100686.94
2019-05-19T00:35:51.681Z,100691.67
2019-05-19T00:36:27.581Z,100689.16
2019-05-19T00:37:03.765Z,100681.69
2019-05-19T00:37:39.644Z,100685.92
2019-05-19T00:38:15.572Z,100682.06
2019-05-19T00:38:51.741Z,100681.92
2019-05-19T00:39:27.634Z,100680.66
2019-05-19T00:40:03.496Z,100678.67
2019-05-19T00:40:39.445Z,100672.62
2019-05-19T00:41:16.821Z,100674.73
2019-05-19T00:41:52.706Z,100677.69
2019-05-19T00:42:28.674Z,100670.27
2019-05-19T00:43:04.546Z,100670.44
2019-05-19T00:43:40.406Z,100670.92
2019-05-19T00:44:16.394Z,100679.47
2019-05-19T00:44:52.247Z,100676.88
2019-05-19T00:45:28.204Z,100677.63
2019-05-19T00:46:04.101Z,100687.22
2019-05-19T00:46:40.060Z,100684.91
2019-05-19T00:47:16.131Z,100679.89
2019-05-19T00:47:52.161Z,100687.87
2019-05-19T00:48:28.003Z,100684.23
2019-05-19T00:49:04.024Z,100683.28
2019-05-19T00:49:41.737Z,100682.64
2019-05-19T00:50:17.970Z,100684.95
2019-05-19T00:50:53.947Z,100689.44
2019-05-19T00:51:29.931Z,100680.91
2019-05-19T00:52:05.921Z,100688.37
2019-05-19T00:52:42.058Z,100693.64
2019-05-19T00:53:18.071Z,100690.77
2019-05-19T00:53:54.000Z,100694.67
2019-05-19T00:54:29.884Z,100698.37
2019-05-19T00:55:06.104Z,100700.69
2019-05-19T00:55:41.989Z,100695.65
2019-05-19T00:56:18.060Z,100696.92
2019-05-19T00:56:54.114Z,100700.03
2019-05-19T00:57:31.205Z,100701.31
2019-05-19T00:58:07.658Z,100704.92
2019-05-19T00:58:44.042Z,100704.28
2019-05-19T00:59:20.704Z,100709.91
2019-05-19T00:59:57.042Z,100710.84
2019-05-19T01:00:32.923Z,100710.44
2019-05-19T01:01:08.853Z,100707.02
2019-05-19T01:01:46.347Z,100706.84
2019-05-19T01:02:22.295Z,100711.87
2019-05-19T01:02:58.355Z,100710.09
2019-05-19T01:03:34.290Z,100702.31
2019-05-19T01:04:11.062Z,100710.33
2019-05-19T01:04:46.973Z,100709.27
2019-05-19T01:05:22.803Z,100714.79
2019-05-19T01:06:00.210Z,100710.80
2019-05-19T01:06:36.140Z,100711.87
2019-05-19T01:07:12.183Z,100708.88
2019-05-19T01:07:48.207Z,100715.16
2019-05-19T01:08:24.055Z,100711.48
2019-05-19T01:08:59.903Z,100717.45
2019-05-19T01:09:36.167Z,100717.02
2019-05-19T01:10:12.139Z,100715.50
2019-05-19T01:10:48.066Z,100717.72
2019-05-19T01:11:23.991Z,100724.87
2019-05-19T01:11:59.994Z,100716.97
2019-05-19T01:12:36.073Z,100718.60
2019-05-19T01:13:12.027Z,100722.66
2019-05-19T01:13:47.955Z,100726.58
2019-05-19T01:14:23.859Z,100723.88
2019-05-19T01:14:59.742Z,100723.17
2019-05-19T01:15:35.640Z,100723.17
2019-05-19T01:16:11.529Z,100724.56
2019-05-19T01:16:47.386Z,100724.59
2019-05-19T01:17:23.291Z,100725.28
2019-05-19T01:17:59.171Z,100726.81
2019-05-19T01:18:35.043Z,100727.17
2019-05-19T01:19:10.954Z,100730.56
2019-05-19T01:19:55.709Z,100733.20
2019-05-19T01:20:24.456Z,100733.29
2019-05-19T01:21:00.581Z,100728.44
2019-05-19T01:21:36.852Z,100732.42
2019-05-19T01:22:12.814Z,100733.62
2019-05-19T01:22:48.763Z,100736.80
2019-05-19T01:23:24.671Z,100738.20
2019-05-19T01:24:00.664Z,100735.94
2019-05-19T01:24:36.539Z,100739.59
2019-05-19T01:25:12.631Z,100743.44
2019-05-19T01:25:48.534Z,100739.35
2019-05-19T01:26:24.402Z,100740.61
2019-05-19T01:27:00.246Z,100744.11
2019-05-19T01:27:36.180Z,100737.44
2019-05-19T01:28:12.237Z,100741.20
2019-05-19T01:28:48.816Z,100737.73
2019-05-19T01:29:25.602Z,100738.42
2019-05-19T01:30:01.842Z,100741.72
2019-05-19T01:30:38.027Z,100735.67
2019-05-19T01:31:14.889Z,100733.27
2019-05-19T01:31:51.926Z,100743.45
2019-05-19T01:32:28.695Z,100741.05
2019-05-19T01:33:05.470Z,100750.27
2019-05-19T01:33:41.791Z,100745.28
2019-05-19T01:34:18.486Z,100752.17
2019-05-19T01:34:55.287Z,100748.93
2019-05-19T01:35:32.032Z,100749.32
2019-05-19T01:36:08.648Z,100746.16
2019-05-19T01:36:45.414Z,100752.16
2019-05-19T01:37:21.995Z,100755.92
2019-05-19T01:37:58.662Z,100748.17
2019-05-19T01:38:35.402Z,100745.83
2019-05-19T01:39:12.203Z,100748.51
2019-05-19T01:39:49.009Z,100755.09
2019-05-19T01:40:24.984Z,100753.05
2019-05-19T01:41:00.857Z,100753.90
2019-05-19T01:41:36.680Z,100753.39
2019-05-19T01:42:12.799Z,100754.66
2019-05-19T01:42:48.744Z,100754.98
2019-05-19T01:43:24.621Z,100756.58
2019-05-19T01:44:00.477Z,100757.52
2019-05-19T01:44:36.356Z,100756.86
2019-05-19T01:45:12.225Z,100755.93
2019-05-19T01:45:48.084Z,100756.87
2019-05-19T01:46:25.027Z,100753.73
2019-05-19T01:47:01.544Z,100753.53
2019-05-19T01:47:38.247Z,100757.06
2019-05-19T01:48:14.466Z,100757.66
2019-05-19T01:48:50.813Z,100751.49
2019-05-19T01:49:27.129Z,100755.37
2019-05-19T01:50:16.902Z,100750.62
2019-05-19T01:50:42.319Z,100752.09
2019-05-19T01:51:18.418Z,100752.95
2019-05-19T01:51:54.861Z,100750.13
2019-05-19T01:52:31.305Z,100750.20
2019-05-19T01:53:07.333Z,100748.41
2019-05-19T01:53:43.792Z,100749.36
2019-05-19T01:54:20.433Z,100750.45
2019-05-19T01:54:56.400Z,100743.27
2019-05-19T01:55:32.313Z,100748.58
2019-05-19T01:56:08.680Z,100746.41
2019-05-19T01:56:44.864Z,100749.65
2019-05-19T01:57:20.805Z,100757.06
2019-05-19T01:57:56.786Z,100757.20
2019-05-19T01:58:32.763Z,100757.64
2019-05-19T01:59:08.627Z,100759.19
2019-05-19T01:59:44.922Z,100761.29
2019-05-19T02:00:21.658Z,100767.84
2019-05-19T02:00:58.354Z,100762.99
2019-05-19T02:01:34.901Z,100762.00
2019-05-19T02:02:10.991Z,100767.78
2019-05-19T02:02:47.547Z,100767.31
2019-05-19T02:03:24.290Z,100762.27
2019-05-19T02:04:00.915Z,100766.81
2019-05-19T02:04:36.995Z,100769.56
2019-05-19T02:05:13.663Z,100768.16
2019-05-19T02:05:49.644Z,100763.53
2019-05-19T02:06:25.490Z,100765.39
2019-05-19T02:07:04.687Z,100770.63
2019-05-19T02:07:40.567Z,100772.95
2019-05-19T02:08:16.477Z,100767.78
2019-05-19T02:08:52.484Z,100773.02
2019-05-19T02:09:29.908Z,100771.09
2019-05-19T02:10:06.258Z,100774.17
2019-05-19T02:10:42.122Z,100773.77
2019-05-19T02:11:18.039Z,100768.87
2019-05-19T02:11:53.874Z,100770.92
2019-05-19T02:12:29.786Z,100774.01
2019-05-19T02:13:05.707Z,100770.83
2019-05-19T02:13:41.591Z,100773.01
2019-05-19T02:14:17.524Z,100775.89
2019-05-19T02:14:53.414Z,100775.39
2019-05-19T02:15:29.354Z,100774.41
2019-05-19T02:16:05.260Z,100782.31
2019-05-19T02:16:41.215Z,100785.12
2019-05-19T02:17:18.638Z,100781.44
2019-05-19T02:17:54.524Z,100784.53
2019-05-19T02:18:30.403Z,100782.16
2019-05-19T02:19:06.487Z,100780.23
2019-05-19T02:19:42.467Z,100782.17
2019-05-19T02:20:32.254Z,100784.12
2019-05-19T02:20:56.086Z,100784.45
2019-05-19T02:21:32.008Z,100781.91
2019-05-19T02:22:07.973Z,100779.03
2019-05-19T02:22:43.859Z,100783.48
2019-05-19T02:23:19.831Z,100779.92
2019-05-19T02:23:56.248Z,100778.97
2019-05-19T02:24:32.138Z,100784.16
2019-05-19T02:25:08.844Z,100781.55
2019-05-19T02:25:44.695Z,100788.58
2019-05-19T02:26:20.577Z,100786.80
2019-05-19T02:26:56.566Z,100787.34
2019-05-19T02:27:32.458Z,100789.17
2019-05-19T02:28:08.313Z,100783.18
2019-05-19T02:28:44.229Z,100784.98
2019-05-19T02:29:20.118Z,100783.86
2019-05-19T02:29:56.126Z,100783.77
2019-05-19T02:30:32.109Z,100784.42
2019-05-19T02:31:08.027Z,100793.36
2019-05-19T02:31:43.973Z,100789.92
2019-05-19T02:32:19.823Z,100783.52
2019-05-19T02:32:55.725Z,100790.94
2019-05-19T02:33:35.504Z,100782.36
2019-05-19T02:34:09.284Z,100787.86
2019-05-19T02:34:45.366Z,100788.98
2019-05-19T02:35:21.286Z,100789.84
2019-05-19T02:35:57.135Z,100783.06
2019-05-19T02:36:33.015Z,100784.17
2019-05-19T02:37:08.897Z,100789.44
2019-05-19T02:37:46.327Z,100785.20
2019-05-19T02:38:22.583Z,100792.13
2019-05-19T02:38:58.560Z,100794.15
2019-05-19T02:39:34.431Z,100790.75
2019-05-19T02:40:10.498Z,100791.76
2019-05-19T02:40:50.621Z,100787.02
2019-05-19T02:41:28.111Z,100792.87
2019-05-19T02:42:05.602Z,100794.92
2019-05-19T02:42:43.319Z,100792.89
2019-05-19T02:43:19.559Z,100791.36
2019-05-19T02:43:56.140Z,100797.09
2019-05-19T02:44:32.352Z,100791.47
2019-05-19T02:45:08.272Z,100793.51
2019-05-19T02:45:44.364Z,100797.43
2019-05-19T02:46:20.331Z,100801.72
2019-05-19T02:46:56.768Z,100791.80
2019-05-19T02:47:33.665Z,100794.39
2019-05-19T02:48:10.969Z,100805.67
2019-05-19T02:48:47.346Z,100799.54
2019-05-19T02:49:23.550Z,100799.97
2019-05-19T02:50:00.291Z,100809.38
2019-05-19T02:50:50.993Z,100811.66
2019-05-19T02:51:15.730Z,100808.81
2019-05-19T02:51:52.349Z,100814.16
2019-05-19T02:52:28.796Z,100807.24
2019-05-19T02:53:05.249Z,100807.63
2019-05-19T02:53:41.789Z,100811.55
2019-05-19T02:54:17.767Z,100813.31
2019-05-19T02:54:53.946Z,100808.26
2019-05-19T02:55:30.364Z,100807.80
2019-05-19T02:56:06.790Z,100810.91
2019-05-19T02:56:43.249Z,100812.38
2019-05-19T02:57:19.273Z,100810.29
2019-05-19T02:57:55.900Z,100810.94
2019-05-19T02:58:32.117Z,100812.44
2019-05-19T02:59:08.191Z,100813.09
2019-05-19T02:59:44.093Z,100811.00
2019-05-19T03:00:22.805Z,100810.84
2019-05-19T03:00:58.696Z,100816.40
2019-05-19T03:01:37.233Z,100816.47
2019-05-19T03:02:13.833Z,100815.00
2019-05-19T03:02:49.884Z,100819.19
2019-05-19T03:03:25.771Z,100816.83
2019-05-19T03:04:01.620Z,100820.94
2019-05-19T03:04:37.554Z,100825.92
2019-05-19T03:05:13.489Z,100827.36
2019-05-19T03:05:49.550Z,100819.69
2019-05-19T03:06:25.555Z,100819.69
2019-05-19T03:07:01.432Z,100835.64
2019-05-19T03:07:39.614Z,100835.64
2019-05-19T03:08:15.500Z,100826.01
2019-05-19T03:08:51.407Z,100830.14
2019-05-19T03:09:27.411Z,100838.72
2019-05-19T03:10:03.416Z,100843.06
2019-05-19T03:10:39.333Z,100843.06
2019-05-19T03:11:15.298Z,100829.88
2019-05-19T03:11:51.302Z,100838.50
2019-05-19T03:12:28.787Z,100838.50
2019-05-19T03:13:04.782Z,100831.53
2019-05-19T03:13:40.838Z,100848.80
2019-05-19T03:14:16.716Z,100841.23
2019-05-19T03:14:52.714Z,100841.23
2019-05-19T03:15:28.703Z,100837.19
2019-05-19T03:16:04.727Z,100833.73
2019-05-19T03:16:40.744Z,100843.39
2019-05-19T03:17:16.670Z,100847.70
2019-05-19T03:17:52.579Z,100849.30
2019-05-19T03:18:28.521Z,100838.83
2019-05-19T03:19:04.625Z,100851.20
2019-05-19T03:19:40.698Z,100833.94
2019-05-19T03:20:16.756Z,100841.23
2019-05-19T03:21:09.964Z,100841.23
2019-05-19T03:21:30.571Z,100844.67
2019-05-19T03:22:06.798Z,100841.20
2019-05-19T03:22:42.695Z,100841.20
2019-05-19T03:23:18.585Z,100843.09
2019-05-19T03:23:54.478Z,100857.34
2019-05-19T03:24:30.647Z,100857.34
2019-05-19T03:25:06.881Z,100846.53
2019-05-19T03:25:44.237Z,100837.15
2019-05-19T03:26:20.697Z,100837.15
2019-05-19T03:26:56.589Z,100833.61
2019-05-19T03:27:32.456Z,100833.61
2019-05-19T03:28:08.451Z,100839.48
2019-05-19T03:28:44.383Z,100842.19
2019-05-19T03:29:24.430Z,100833.02
2019-05-19T03:30:19.199Z,100835.72
2019-05-19T03:31:05.393Z,100833.35
2019-05-19T03:31:51.878Z,100834.95
2019-05-19T03:32:42.048Z,100829.81
2019-05-19T03:33:20.702Z,100825.75
2019-05-19T03:33:59.653Z,100819.87
2019-05-19T03:34:35.561Z,100819.87
2019-05-19T03:35:11.642Z,100821.45
2019-05-19T03:35:48.631Z,100820.86
2019-05-19T03:36:24.566Z,100818.45
2019-05-19T03:37:00.594Z,100813.30
2019-05-19T03:37:36.625Z,100818.08
2019-05-19T03:38:12.546Z,100821.84
2019-05-19T03:38:48.521Z,100809.93
2019-05-19T03:39:24.430Z,100805.16
2019-05-19T03:40:02.133Z,100805.06
2019-05-19T03:40:37.993Z,100805.06
2019-05-19T03:41:14.653Z,100800.46
2019-05-19T03:41:50.740Z,100800.46
2019-05-19T03:42:26.682Z,100799.36
2019-05-19T03:43:02.762Z,100796.37
2019-05-19T03:43:38.658Z,100787.16
2019-05-19T03:44:14.583Z,100787.16
2019-05-19T03:44:50.625Z,100792.30
2019-05-19T03:45:26.594Z,100792.30
2019-05-19T03:46:02.504Z,100790.66
2019-05-19T03:46:39.905Z,100791.20
2019-05-19T03:47:16.013Z,100791.77
2019-05-19T03:47:51.855Z,100795.52
2019-05-19T03:48:27.910Z,100797.70
2019-05-19T03:49:07.630Z,100797.70
2019-05-19T03:49:43.529Z,100794.47
2019-05-19T03:50:21.045Z,100792.30
2019-05-19T03:50:57.044Z,100798.77
2019-05-19T03:51:33.046Z,100800.97
2019-05-19T03:52:09.157Z,100797.17
2019-05-19T03:52:45.163Z,100798.52
2019-05-19T03:53:21.000Z,100798.52
2019-05-19T03:53:57.088Z,100799.06
2019-05-19T03:54:33.009Z,100785.85
2019-05-19T03:55:09.117Z,100799.82
2019-05-19T03:55:45.013Z,100799.82
2019-05-19T03:56:20.907Z,100796.31
2019-05-19T03:56:56.930Z,100791.52
2019-05-19T03:57:32.900Z,100791.52
2019-05-19T03:58:08.795Z,100797.96
2019-05-19T03:58:44.798Z,100793.91
2019-05-19T03:59:20.685Z,100793.91
2019-05-19T03:59:56.581Z,100792.47
2019-05-19T04:00:32.519Z,100792.47
2019-05-19T04:01:08.407Z,100793.53
2019-05-19T04:01:44.274Z,100788.33
2019-05-19T04:02:20.353Z,100790.95
2019-05-19T04:02:57.444Z,100790.95
2019-05-19T04:03:40.990Z,100789.25
2019-05-19T04:04:17.037Z,100793.76
2019-05-19T04:04:53.067Z,100793.76
2019-05-19T04:05:29.090Z,100788.64
2019-05-19T04:06:05.018Z,100792.91
2019-05-19T04:06:41.152Z,100798.48
2019-05-19T04:07:17.078Z,100793.58
2019-05-19T04:07:53.101Z,100793.83
2019-05-19T04:08:29.143Z,100796.03
2019-05-19T04:09:05.195Z,100800.24
2019-05-19T04:09:41.122Z,100799.14
2019-05-19T04:10:17.824Z,100806.16
2019-05-19T04:10:53.710Z,100796.69
2019-05-19T04:11:29.634Z,100803.45
2019-05-19T04:12:05.567Z,100802.10
2019-05-19T04:12:41.503Z,100806.16
2019-05-19T04:13:17.432Z,100803.73
2019-05-19T04:13:53.319Z,100803.73
2019-05-19T04:14:29.262Z,100801.03
2019-05-19T04:15:05.265Z,100800.75
2019-05-19T04:15:41.130Z,100803.20
2019-05-19T04:16:17.046Z,100801.84
2019-05-19T04:16:54.307Z,100793.48
2019-05-19T04:17:30.293Z,100793.23
2019-05-19T04:18:06.219Z,100793.23
2019-05-19T04:18:42.117Z,100798.64
2019-05-19T04:19:17.989Z,100796.19
2019-05-19T04:19:53.917Z,100788.67
2019-05-19T04:20:29.771Z,100787.58
2019-05-19T04:21:06.464Z,100784.61
2019-05-19T04:21:48.631Z,100784.61
2019-05-19T04:22:20.433Z,100781.91
2019-05-19T04:22:56.508Z,100780.01
2019-05-19T04:23:32.455Z,100786.22
2019-05-19T04:24:08.348Z,100775.75
2019-05-19T04:24:46.570Z,100782.71
2019-05-19T04:25:22.724Z,100784.61
2019-05-19T04:25:58.756Z,100785.41
2019-05-19T04:26:34.630Z,100794.33
2019-05-19T04:27:10.562Z,100785.12
2019-05-19T04:27:46.470Z,100791.03
2019-05-19T04:28:22.484Z,100794.58
2019-05-19T04:28:58.367Z,100793.73
2019-05-19T04:29:34.342Z,100795.34
2019-05-19T04:30:10.649Z,100795.09
2019-05-19T04:30:46.587Z,100795.09
2019-05-19T04:31:22.487Z,100794.27
2019-05-19T04:31:58.343Z,100794.27
2019-05-19T04:32:34.391Z,100791.81
2019-05-19T04:33:10.336Z,100787.77
2019-05-19T04:33:46.383Z,100780.45
2019-05-19T04:34:22.302Z,100780.45
2019-05-19T04:34:58.195Z,100781.80
2019-05-19T04:35:34.112Z,100781.00
2019-05-19T04:36:10.011Z,100781.25
2019-05-19T04:36:46.096Z,100782.85
2019-05-19T04:37:22.014Z,100782.85
2019-05-19T04:37:58.060Z,100782.85
2019-05-19T04:38:34.065Z,100780.70
2019-05-19T04:39:10.430Z,100772.03
2019-05-19T04:39:46.356Z,100780.41
2019-05-19T04:40:22.235Z,100775.27
2019-05-19T04:40:59.464Z,100775.55
2019-05-19T04:41:35.373Z,100776.34
2019-05-19T04:42:11.660Z,100779.05
2019-05-19T04:42:47.559Z,100772.56
2019-05-19T04:43:23.501Z,100773.07
2019-05-19T04:43:59.430Z,100773.32
2019-05-19T04:44:35.348Z,100773.32
2019-05-19T04:45:11.346Z,100769.77
2019-05-19T04:45:47.212Z,100770.02
2019-05-19T04:46:23.084Z,100767.31
2019-05-19T04:46:58.959Z,100764.86
2019-05-19T04:47:34.967Z,100766.46
2019-05-19T04:48:10.855Z,100765.11
2019-05-19T04:48:46.794Z,100761.05
2019-05-19T04:49:22.754Z,100759.39
2019-05-19T04:49:58.656Z,100760.45
2019-05-19T04:50:34.467Z,100762.30
2019-05-19T04:51:10.489Z,100759.59
2019-05-19T04:51:46.523Z,100750.38
2019-05-19T04:52:22.680Z,100758.20
2019-05-19T04:52:58.544Z,100752.23
2019-05-19T04:53:34.472Z,100753.59
2019-05-19T04:54:10.370Z,100749.53
2019-05-19T04:54:46.254Z,100751.96
2019-05-19T04:55:22.173Z,100752.21
2019-05-19T04:55:58.093Z,100760.03
2019-05-19T04:56:34.006Z,100752.41
2019-05-19T04:57:09.897Z,100754.02
2019-05-19T04:57:45.846Z,100756.67
2019-05-19T04:58:21.718Z,100753.41
2019-05-19T04:58:57.614Z,100753.11
2019-05-19T04:59:33.510Z,100755.81
2019-05-19T05:00:09.572Z,100752.81
2019-05-19T05:00:45.432Z,100754.41
2019-05-19T05:01:21.319Z,100756.87
2019-05-19T05:01:57.352Z,100755.21
2019-05-19T05:02:33.473Z,100756.27
2019-05-19T05:03:09.511Z,100754.36
2019-05-19T05:03:45.456Z,100761.67
2019-05-19T05:04:21.358Z,100759.47
2019-05-19T05:04:57.239Z,100765.13
2019-05-19T05:05:34.770Z,100759.72
2019-05-19T05:06:10.836Z,100762.67
2019-05-19T05:06:46.767Z,100758.61
2019-05-19T05:07:22.615Z,100761.57
2019-05-19T05:07:58.585Z,100756.96
2019-05-19T05:08:34.480Z,100754.25
2019-05-19T05:09:10.414Z,100755.34
2019-05-19T05:09:46.311Z,100752.08
2019-05-19T05:10:22.201Z,100752.88
2019-05-19T05:10:58.131Z,100747.72
2019-05-19T05:11:34.081Z,100745.26
2019-05-19T05:12:09.984Z,100744.95
2019-05-19T05:12:46.050Z,100751.67
2019-05-19T05:13:22.028Z,100752.16
2019-05-19T05:13:57.996Z,100749.70
2019-05-19T05:14:34.296Z,100745.34
2019-05-19T05:15:11.014Z,100743.44
2019-05-19T05:15:46.903Z,100746.94
2019-05-19T05:16:22.766Z,100741.84
2019-05-19T05:16:58.643Z,100745.64
2019-05-19T05:17:34.683Z,100744.29
2019-05-19T05:18:10.682Z,100746.20
2019-05-19T05:18:47.962Z,100749.45
2019-05-19T05:19:24.257Z,100741.34
2019-05-19T05:20:00.127Z,100749.45
2019-05-19T05:20:36.004Z,100748.91
2019-05-19T05:21:11.874Z,100747.25
2019-05-19T05:21:47.876Z,100748.85
2019-05-19T05:22:23.854Z,100750.45
2019-05-19T05:22:59.965Z,100749.34
2019-05-19T05:23:35.824Z,100749.10
2019-05-19T05:24:11.728Z,100753.41
2019-05-19T05:24:47.698Z,100755.02
2019-05-19T05:25:23.649Z,100759.08
2019-05-19T05:25:59.575Z,100759.60
2019-05-19T05:26:35.530Z,100761.20
2019-05-19T05:27:11.479Z,100760.09
2019-05-19T05:27:47.419Z,100761.70
2019-05-19T05:28:23.450Z,100756.28
2019-05-19T05:28:59.316Z,100757.89
2019-05-19T05:29:35.379Z,100761.95
2019-05-19T05:30:11.821Z,100762.75
2019-05-19T05:30:49.253Z,100762.23
2019-05-19T05:31:25.204Z,100765.73
2019-05-19T05:32:01.196Z,100757.31
2019-05-19T05:32:37.111Z,100758.91
2019-05-19T05:33:13.029Z,100754.85
2019-05-19T05:33:48.908Z,100753.44
2019-05-19T05:34:24.939Z,100753.14
2019-05-19T05:35:00.815Z,100750.67
2019-05-19T05:35:36.791Z,100756.34
2019-05-19T05:36:12.673Z,100751.17
2019-05-19T05:36:48.571Z,100743.85
2019-05-19T05:37:24.439Z,100744.66
2019-05-19T05:38:00.397Z,100744.09
2019-05-19T05:38:36.338Z,100741.09
2019-05-19T05:39:12.231Z,100735.11
2019-05-19T05:39:48.244Z,100736.97
2019-05-19T05:40:24.157Z,100736.41
2019-05-19T05:41:00.047Z,100724.47
2019-05-19T05:41:36.037Z,100727.92
2019-05-19T05:42:12.049Z,100734.91
2019-05-19T05:42:47.931Z,100731.90
2019-05-19T05:43:23.812Z,100729.19
2019-05-19T05:43:59.690Z,100728.08
2019-05-19T05:44:35.550Z,100731.59
2019-05-19T05:45:11.999Z,100732.39
2019-05-19T05:45:48.014Z,100733.50
2019-05-19T05:46:23.894Z,100736.20
2019-05-19T05:46:59.886Z,100730.55
2019-05-19T05:47:35.748Z,100733.01
2019-05-19T05:48:11.673Z,100734.11
2019-05-19T05:48:47.547Z,100730.05
2019-05-19T05:49:23.451Z,100734.61
2019-05-19T05:49:59.348Z,100734.36
2019-05-19T05:50:35.212Z,100729.19
2019-05-19T05:51:11.118Z,100731.41
2019-05-19T05:51:46.991Z,100726.81
2019-05-19T05:52:37.519Z,100723.86
2019-05-19T05:53:00.638Z,100725.46
2019-05-19T05:53:36.530Z,100719.24
2019-05-19T05:54:12.433Z,100721.64
2019-05-19T05:54:48.329Z,100722.75
2019-05-19T05:55:24.252Z,100717.34
2019-05-19T05:56:00.133Z,100715.73
2019-05-19T05:56:36.072Z,100716.53
2019-05-19T05:57:12.049Z,100727.12
2019-05-19T05:57:47.946Z,100717.34
2019-05-19T05:58:24.309Z,100720.57
2019-05-19T05:59:00.254Z,100718.91
2019-05-19T05:59:36.164Z,100721.31
2019-05-19T06:00:12.074Z,100721.55
2019-05-19T06:00:47.971Z,100719.89
2019-05-19T06:01:23.867Z,100719.28
2019-05-19T06:01:59.793Z,100714.30
2019-05-19T06:02:35.676Z,100721.50
2019-05-19T06:03:11.555Z,100717.63
2019-05-19T06:03:47.506Z,100719.72
2019-05-19T06:04:23.419Z,100723.97
2019-05-19T06:04:59.348Z,100721.75
2019-05-19T06:05:35.321Z,100723.53
2019-05-19T06:06:11.239Z,100722.66
2019-05-19T06:06:47.169Z,100727.16
2019-05-19T06:07:23.164Z,100722.44
2019-05-19T06:07:59.162Z,100714.17
2019-05-19T06:08:35.033Z,100720.27
2019-05-19T06:09:11.069Z,100716.06
2019-05-19T06:09:47.094Z,100714.61
2019-05-19T06:10:22.955Z,100717.19
2019-05-19T06:10:58.985Z,100717.08
2019-05-19T06:11:34.931Z,100718.05
2019-05-19T06:12:12.299Z,100715.20
2019-05-19T06:12:48.181Z,100705.84
2019-05-19T06:13:24.164Z,100711.93
2019-05-19T06:14:00.105Z,100713.14
2019-05-19T06:14:36.090Z,100713.08
2019-05-19T06:15:11.909Z,100707.78
2019-05-19T06:15:47.750Z,100713.78
2019-05-19T06:16:23.734Z,100710.30
2019-05-19T06:17:01.286Z,100707.97
2019-05-19T06:17:37.215Z,100707.67
2019-05-19T06:18:13.107Z,100708.88
2019-05-19T06:18:49.047Z,100706.52
2019-05-19T06:19:25.049Z,100705.73
2019-05-19T06:20:00.872Z,100711.80
2019-05-19T06:20:36.854Z,100704.48
2019-05-19T06:21:12.778Z,100704.03
2019-05-19T06:21:48.672Z,100703.70
2019-05-19T06:22:24.679Z,100703.58
2019-05-19T06:23:00.628Z,100698.14
2019-05-19T06:23:36.547Z,100699.34
2019-05-19T06:24:12.567Z,100698.92
2019-05-19T06:24:48.553Z,100696.52
2019-05-19T06:25:24.491Z,100691.50
2019-05-19T06:26:02.250Z,100691.66
2019-05-19T06:26:38.226Z,100696.77
2019-05-19T06:27:14.295Z,100691.81
2019-05-19T06:27:50.209Z,100688.77
2019-05-19T06:28:26.098Z,100690.36
2019-05-19T06:29:02.025Z,100685.81
2019-05-19T06:29:38.052Z,100683.66
2019-05-19T06:30:14.267Z,100685.09
2019-05-19T06:30:50.227Z,100678.20
2019-05-19T06:31:26.358Z,100678.38
2019-05-19T06:32:09.080Z,100674.95
2019-05-19T06:32:47.780Z,100676.71
2019-05-19T06:33:23.681Z,100677.28
2019-05-19T06:33:59.732Z,100675.58
2019-05-19T06:34:35.715Z,100669.36
2019-05-19T06:35:14.332Z,100675.53
2019-05-19T06:35:50.345Z,100673.38
2019-05-19T06:36:26.253Z,100673.06
2019-05-19T06:37:02.304Z,100679.25
2019-05-19T06:37:38.313Z,100673.41
2019-05-19T06:38:14.287Z,100672.81
2019-05-19T06:38:50.160Z,100669.48
2019-05-19T06:39:26.013Z,100675.14
2019-05-19T06:40:01.952Z,100674.36
2019-05-19T06:40:37.898Z,100680.80
2019-05-19T06:41:13.769Z,100674.52
2019-05-19T06:41:51.157Z,100682.55
2019-05-19T06:42:27.237Z,100676.51
2019-05-19T06:43:03.077Z,100680.47
2019-05-19T06:43:38.968Z,100685.52
2019-05-19T06:44:15.196Z,100684.59
2019-05-19T06:44:51.102Z,100684.98
2019-05-19T06:45:27.113Z,100682.19
2019-05-19T06:46:03.062Z,100675.30
2019-05-19T06:46:39.043Z,100677.83
2019-05-19T06:47:14.960Z,100677.16
2019-05-19T06:47:50.834Z,100676.15
2019-05-19T06:48:26.874Z,100680.80
2019-05-19T06:49:02.747Z,100672.31
2019-05-19T06:49:38.648Z,100669.78
2019-05-19T06:50:15.028Z,100672.31
2019-05-19T06:50:50.881Z,100669.69
2019-05-19T06:51:26.769Z,100673.02
2019-05-19T06:52:02.665Z,100670.98
2019-05-19T06:52:38.489Z,100668.03
2019-05-19T06:53:15.630Z,100665.44
2019-05-19T06:53:51.506Z,100671.96